sensor_id;sensor_type;location;lat;lon;timestamp;temperature;humidity
16929;DHT22;8581;47.334;11.190;2023-02-24T00:00:31;0.00;99.90
16929;DHT22;8581;47.334;11.190;2023-02-24T00:03:03;0.20;99.90
16929;DHT22;8581;47.334;11.190;2023-02-24T00:05:36;0.50;99.90
16929;DHT22;8581;47.334;11.190;2023-02-24T00:08:07;0.60;99.90
16929;DHT22;8581;47.334;11.190;2023-02-24T00:10:39;0.40;99.90
16929;DHT22;8581;47.334;11.190;2023-02-24T00:13:10;0.40;99.90
16929;DHT22;8581;47.334;11.190;2023-02-24T00:15:42;0.50;99.90
16929;DHT22;8581;47.334;11.190;2023-02-24T00:18:14;0.60;99.90
16929;DHT22;8581;47.334;11.190;2023-02-24T00:20:45;0.60;99.90
16929;DHT22;8581;47.334;11.190;2023-02-24T00:23:17;0.80;99.90
16929;DHT22;8581;47.334;11.190;2023-02-24T00:25:56;0.70;99.90
16929;DHT22;8581;47.334;11.190;2023-02-24T00:28:20;0.70;99.90
16929;DHT22;8581;47.334;11.190;2023-02-24T00:30:52;0.80;99.90
16929;DHT22;8581;47.334;11.190;2023-02-24T00:33:29;0.90;99.90
16929;DHT22;8581;47.334;11.190;2023-02-24T00:36:12;0.90;99.90
16929;DHT22;8581;47.334;11.190;2023-02-24T00:38:42;1.10;99.90
16929;DHT22;8581;47.334;11.190;2023-02-24T00:41:16;1.20;99.90
16929;DHT22;8581;47.334;11.190;2023-02-24T00:43:47;1.20;99.90
16929;DHT22;8581;47.334;11.190;2023-02-24T00:46:19;1.20;99.90
16929;DHT22;8581;47.334;11.190;2023-02-24T00:48:52;1.10;99.90
16929;DHT22;8581;47.334;11.190;2023-02-24T00:51:22;1.10;99.90
16929;DHT22;8581;47.334;11.190;2023-02-24T00:53:53;1.20;99.90
16929;DHT22;8581;47.334;11.190;2023-02-24T00:56:29;1.30;99.90
16929;DHT22;8581;47.334;11.190;2023-02-24T00:59:01;1.50;99.90
16929;DHT22;8581;47.334;11.190;2023-02-24T01:01:35;1.40;99.90
16929;DHT22;8581;47.334;11.190;2023-02-24T01:04:06;1.50;99.90
16929;DHT22;8581;47.334;11.190;2023-02-24T01:06:39;1.50;99.90
16929;DHT22;8581;47.334;11.190;2023-02-24T01:09:11;1.60;99.90
16929;DHT22;8581;47.334;11.190;2023-02-24T01:11:42;1.70;99.90
16929;DHT22;8581;47.334;11.190;2023-02-24T01:14:21;1.70;99.90
16929;DHT22;8581;47.334;11.190;2023-02-24T01:16:51;1.70;99.90
16929;DHT22;8581;47.334;11.190;2023-02-24T01:19:24;1.80;99.90
16929;DHT22;8581;47.334;11.190;2023-02-24T01:21:54;1.70;99.90
16929;DHT22;8581;47.334;11.190;2023-02-24T01:24:26;1.70;99.90
16929;DHT22;8581;47.334;11.190;2023-02-24T01:26:57;1.60;99.90
16929;DHT22;8581;47.334;11.190;2023-02-24T01:29:29;1.50;99.90
16929;DHT22;8581;47.334;11.190;2023-02-24T01:32:00;1.40;99.90
16929;DHT22;8581;47.334;11.190;2023-02-24T01:34:32;1.40;99.90
16929;DHT22;8581;47.334;11.190;2023-02-24T01:37:04;1.30;99.90
16929;DHT22;8581;47.334;11.190;2023-02-24T01:39:35;1.20;99.90
16929;DHT22;8581;47.334;11.190;2023-02-24T01:42:09;1.20;99.90
16929;DHT22;8581;47.334;11.190;2023-02-24T01:45:02;1.30;99.90
16929;DHT22;8581;47.334;11.190;2023-02-24T01:47:30;1.20;99.90
16929;DHT22;8581;47.334;11.190;2023-02-24T01:50:02;1.30;99.90
16929;DHT22;8581;47.334;11.190;2023-02-24T01:52:35;1.30;99.90
16929;DHT22;8581;47.334;11.190;2023-02-24T01:55:07;1.10;99.90
16929;DHT22;8581;47.334;11.190;2023-02-24T01:57:39;1.20;99.90
16929;DHT22;8581;47.334;11.190;2023-02-24T02:00:12;1.10;99.90
16929;DHT22;8581;47.334;11.190;2023-02-24T02:02:44;1.10;99.90
16929;DHT22;8581;47.334;11.190;2023-02-24T02:05:15;0.90;99.90
16929;DHT22;8581;47.334;11.190;2023-02-24T02:07:47;1.00;99.90
16929;DHT22;8581;47.334;11.190;2023-02-24T02:10:19;0.90;99.90
16929;DHT22;8581;47.334;11.190;2023-02-24T02:12:50;0.70;99.90
16929;DHT22;8581;47.334;11.190;2023-02-24T02:15:22;0.60;99.90
16929;DHT22;8581;47.334;11.190;2023-02-24T02:18:16;0.50;99.90
16929;DHT22;8581;47.334;11.190;2023-02-24T02:20:58;0.60;99.90
16929;DHT22;8581;47.334;11.190;2023-02-24T02:23:39;0.50;99.90
16929;DHT22;8581;47.334;11.190;2023-02-24T02:26:15;0.40;99.90
16929;DHT22;8581;47.334;11.190;2023-02-24T02:29:08;0.30;99.90
16929;DHT22;8581;47.334;11.190;2023-02-24T02:34:30;0.50;99.90
16929;DHT22;8581;47.334;11.190;2023-02-24T02:37:32;0.50;99.90
16929;DHT22;8581;47.334;11.190;2023-02-24T02:39:49;0.30;99.90
16929;DHT22;8581;47.334;11.190;2023-02-24T02:42:40;0.40;99.90
16929;DHT22;8581;47.334;11.190;2023-02-24T02:45:17;0.50;99.90
16929;DHT22;8581;47.334;11.190;2023-02-24T02:47:48;0.40;99.90
16929;DHT22;8581;47.334;11.190;2023-02-24T02:50:24;0.30;99.90
16929;DHT22;8581;47.334;11.190;2023-02-24T02:52:57;0.20;99.90
16929;DHT22;8581;47.334;11.190;2023-02-24T02:55:38;0.20;99.90
16929;DHT22;8581;47.334;11.190;2023-02-24T02:58:10;0.00;99.90
16929;DHT22;8581;47.334;11.190;2023-02-24T03:00:41;0.10;99.90
16929;DHT22;8581;47.334;11.190;2023-02-24T03:03:12;0.10;99.90
16929;DHT22;8581;47.334;11.190;2023-02-24T03:06:16;0.10;99.90
16929;DHT22;8581;47.334;11.190;2023-02-24T03:08:30;0.30;99.90
16929;DHT22;8581;47.334;11.190;2023-02-24T03:11:02;0.20;99.90
16929;DHT22;8581;47.334;11.190;2023-02-24T03:13:34;0.20;99.90
16929;DHT22;8581;47.334;11.190;2023-02-24T03:16:05;0.00;99.90
16929;DHT22;8581;47.334;11.190;2023-02-24T03:18:40;-0.10;99.90
16929;DHT22;8581;47.334;11.190;2023-02-24T03:21:12;0.00;99.90
16929;DHT22;8581;47.334;11.190;2023-02-24T03:23:43;0.20;99.90
16929;DHT22;8581;47.334;11.190;2023-02-24T03:26:31;0.40;99.90
16929;DHT22;8581;47.334;11.190;2023-02-24T03:29:05;0.30;99.90
16929;DHT22;8581;47.334;11.190;2023-02-24T03:31:42;0.10;99.90
16929;DHT22;8581;47.334;11.190;2023-02-24T03:36:59;0.00;99.90
16929;DHT22;8581;47.334;11.190;2023-02-24T03:39:31;0.00;99.90
16929;DHT22;8581;47.334;11.190;2023-02-24T03:42:05;0.00;99.90
16929;DHT22;8581;47.334;11.190;2023-02-24T03:44:35;0.00;99.90
16929;DHT22;8581;47.334;11.190;2023-02-24T03:47:06;0.10;99.90
16929;DHT22;8581;47.334;11.190;2023-02-24T03:49:38;0.10;99.90
16929;DHT22;8581;47.334;11.190;2023-02-24T03:52:19;0.20;99.90
16929;DHT22;8581;47.334;11.190;2023-02-24T03:55:03;0.20;99.90
16929;DHT22;8581;47.334;11.190;2023-02-24T03:57:38;0.20;99.90
16929;DHT22;8581;47.334;11.190;2023-02-24T04:00:07;0.20;99.90
16929;DHT22;8581;47.334;11.190;2023-02-24T04:02:39;0.10;99.90
16929;DHT22;8581;47.334;11.190;2023-02-24T04:05:13;0.10;99.90
16929;DHT22;8581;47.334;11.190;2023-02-24T04:07:58;0.20;99.90
16929;DHT22;8581;47.334;11.190;2023-02-24T04:10:37;0.10;99.90
16929;DHT22;8581;47.334;11.190;2023-02-24T04:13:15;0.10;99.90
16929;DHT22;8581;47.334;11.190;2023-02-24T04:15:44;0.10;99.90
16929;DHT22;8581;47.334;11.190;2023-02-24T04:18:16;0.00;99.90
16929;DHT22;8581;47.334;11.190;2023-02-24T04:20:46;0.10;99.90
16929;DHT22;8581;47.334;11.190;2023-02-24T04:23:21;0.00;99.90
16929;DHT22;8581;47.334;11.190;2023-02-24T04:25:52;0.00;99.90
16929;DHT22;8581;47.334;11.190;2023-02-24T04:28:23;-0.10;99.90
16929;DHT22;8581;47.334;11.190;2023-02-24T04:30:56;-0.10;99.90
16929;DHT22;8581;47.334;11.190;2023-02-24T04:33:26;-0.10;99.90
16929;DHT22;8581;47.334;11.190;2023-02-24T04:35:57;-0.20;99.90
16929;DHT22;8581;47.334;11.190;2023-02-24T04:38:29;-0.20;99.90
16929;DHT22;8581;47.334;11.190;2023-02-24T04:41:00;-0.20;99.90
16929;DHT22;8581;47.334;11.190;2023-02-24T04:43:32;-0.30;99.90
16929;DHT22;8581;47.334;11.190;2023-02-24T04:46:04;-0.30;99.90
16929;DHT22;8581;47.334;11.190;2023-02-24T04:48:35;-0.40;99.90
16929;DHT22;8581;47.334;11.190;2023-02-24T04:51:07;-0.40;99.90
16929;DHT22;8581;47.334;11.190;2023-02-24T04:53:38;-0.30;99.90
16929;DHT22;8581;47.334;11.190;2023-02-24T04:56:10;-0.30;99.90
16929;DHT22;8581;47.334;11.190;2023-02-24T04:58:42;-0.30;99.90
16929;DHT22;8581;47.334;11.190;2023-02-24T05:01:13;-0.30;99.90
16929;DHT22;8581;47.334;11.190;2023-02-24T05:03:45;-0.30;99.90
16929;DHT22;8581;47.334;11.190;2023-02-24T05:06:17;-0.30;99.90
16929;DHT22;8581;47.334;11.190;2023-02-24T05:08:48;-0.10;99.90
16929;DHT22;8581;47.334;11.190;2023-02-24T05:11:20;-0.10;99.90
16929;DHT22;8581;47.334;11.190;2023-02-24T05:13:51;-0.20;99.90
16929;DHT22;8581;47.334;11.190;2023-02-24T05:16:23;-0.20;99.90
16929;DHT22;8581;47.334;11.190;2023-02-24T05:18:55;0.00;99.90
16929;DHT22;8581;47.334;11.190;2023-02-24T05:21:32;0.20;99.90
16929;DHT22;8581;47.334;11.190;2023-02-24T05:24:06;0.00;99.90
16929;DHT22;8581;47.334;11.190;2023-02-24T05:26:38;-0.10;99.90
16929;DHT22;8581;47.334;11.190;2023-02-24T05:29:09;-0.10;99.90
16929;DHT22;8581;47.334;11.190;2023-02-24T05:31:41;0.00;99.90
16929;DHT22;8581;47.334;11.190;2023-02-24T05:34:13;-0.10;99.90
16929;DHT22;8581;47.334;11.190;2023-02-24T05:36:44;-0.10;99.90
16929;DHT22;8581;47.334;11.190;2023-02-24T05:39:16;0.00;99.90
16929;DHT22;8581;47.334;11.190;2023-02-24T05:41:48;0.00;99.90
16929;DHT22;8581;47.334;11.190;2023-02-24T05:44:20;0.00;99.90
16929;DHT22;8581;47.334;11.190;2023-02-24T05:46:52;-0.10;99.90
16929;DHT22;8581;47.334;11.190;2023-02-24T05:49:23;-0.10;99.90
16929;DHT22;8581;47.334;11.190;2023-02-24T05:51:55;0.00;99.90
16929;DHT22;8581;47.334;11.190;2023-02-24T05:54:29;-0.10;99.90
16929;DHT22;8581;47.334;11.190;2023-02-24T05:57:02;-0.10;99.90
16929;DHT22;8581;47.334;11.190;2023-02-24T05:59:33;0.00;99.90
16929;DHT22;8581;47.334;11.190;2023-02-24T06:02:05;0.00;99.90
16929;DHT22;8581;47.334;11.190;2023-02-24T06:04:36;0.00;99.90
16929;DHT22;8581;47.334;11.190;2023-02-24T06:07:12;0.00;99.90
16929;DHT22;8581;47.334;11.190;2023-02-24T06:09:45;0.10;99.90
16929;DHT22;8581;47.334;11.190;2023-02-24T06:12:16;0.30;99.90
16929;DHT22;8581;47.334;11.190;2023-02-24T06:14:47;0.40;99.90
16929;DHT22;8581;47.334;11.190;2023-02-24T06:17:21;0.70;99.90
16929;DHT22;8581;47.334;11.190;2023-02-24T06:19:51;0.70;99.90
16929;DHT22;8581;47.334;11.190;2023-02-24T06:22:23;0.80;99.90
16929;DHT22;8581;47.334;11.190;2023-02-24T06:24:54;0.80;99.90
16929;DHT22;8581;47.334;11.190;2023-02-24T06:27:25;0.90;99.90
16929;DHT22;8581;47.334;11.190;2023-02-24T06:29:57;1.00;99.90
16929;DHT22;8581;47.334;11.190;2023-02-24T06:32:29;1.10;99.90
16929;DHT22;8581;47.334;11.190;2023-02-24T06:35:00;1.10;99.90
16929;DHT22;8581;47.334;11.190;2023-02-24T06:37:32;1.20;99.90
16929;DHT22;8581;47.334;11.190;2023-02-24T06:40:04;1.30;99.90
16929;DHT22;8581;47.334;11.190;2023-02-24T06:42:43;1.50;99.90
16929;DHT22;8581;47.334;11.190;2023-02-24T06:45:15;1.60;99.90
16929;DHT22;8581;47.334;11.190;2023-02-24T06:47:46;1.60;99.90
16929;DHT22;8581;47.334;11.190;2023-02-24T06:50:19;1.70;99.90
16929;DHT22;8581;47.334;11.190;2023-02-24T06:52:53;1.80;99.90
16929;DHT22;8581;47.334;11.190;2023-02-24T06:55:21;1.80;99.90
16929;DHT22;8581;47.334;11.190;2023-02-24T06:57:58;1.90;99.90
16929;DHT22;8581;47.334;11.190;2023-02-24T07:00:31;2.00;99.90
16929;DHT22;8581;47.334;11.190;2023-02-24T07:03:09;2.30;99.90
16929;DHT22;8581;47.334;11.190;2023-02-24T07:05:45;2.20;99.90
16929;DHT22;8581;47.334;11.190;2023-02-24T07:08:23;2.20;99.90
16929;DHT22;8581;47.334;11.190;2023-02-24T07:10:54;2.50;99.90
16929;DHT22;8581;47.334;11.190;2023-02-24T07:13:25;2.70;99.90
16929;DHT22;8581;47.334;11.190;2023-02-24T07:15:58;2.70;99.90
16929;DHT22;8581;47.334;11.190;2023-02-24T07:18:29;2.90;99.90
16929;DHT22;8581;47.334;11.190;2023-02-24T07:21:01;3.10;99.90
16929;DHT22;8581;47.334;11.190;2023-02-24T07:23:35;3.20;99.90
16929;DHT22;8581;47.334;11.190;2023-02-24T07:26:12;3.50;99.90
16929;DHT22;8581;47.334;11.190;2023-02-24T07:28:42;3.60;99.90
16929;DHT22;8581;47.334;11.190;2023-02-24T07:31:15;4.00;99.90
16929;DHT22;8581;47.334;11.190;2023-02-24T07:33:45;4.00;99.90
16929;DHT22;8581;47.334;11.190;2023-02-24T07:36:17;3.90;99.90
16929;DHT22;8581;47.334;11.190;2023-02-24T07:38:51;4.00;99.90
16929;DHT22;8581;47.334;11.190;2023-02-24T07:41:23;4.20;99.90
16929;DHT22;8581;47.334;11.190;2023-02-24T07:43:54;4.40;99.90
16929;DHT22;8581;47.334;11.190;2023-02-24T07:46:26;4.50;99.90
16929;DHT22;8581;47.334;11.190;2023-02-24T07:48:57;4.60;99.90
16929;DHT22;8581;47.334;11.190;2023-02-24T07:51:29;4.70;99.90
16929;DHT22;8581;47.334;11.190;2023-02-24T07:54:01;4.90;99.90
16929;DHT22;8581;47.334;11.190;2023-02-24T07:56:32;4.80;99.90
16929;DHT22;8581;47.334;11.190;2023-02-24T07:59:04;4.90;99.90
16929;DHT22;8581;47.334;11.190;2023-02-24T08:01:36;5.10;99.90
16929;DHT22;8581;47.334;11.190;2023-02-24T08:04:09;5.20;99.90
16929;DHT22;8581;47.334;11.190;2023-02-24T08:06:41;5.20;99.90
16929;DHT22;8581;47.334;11.190;2023-02-24T08:09:16;5.30;99.90
16929;DHT22;8581;47.334;11.190;2023-02-24T08:11:49;5.40;99.90
16929;DHT22;8581;47.334;11.190;2023-02-24T08:14:25;5.50;99.90
16929;DHT22;8581;47.334;11.190;2023-02-24T08:16:58;5.60;99.90
16929;DHT22;8581;47.334;11.190;2023-02-24T08:19:31;5.60;99.90
16929;DHT22;8581;47.334;11.190;2023-02-24T08:22:01;5.60;99.90
16929;DHT22;8581;47.334;11.190;2023-02-24T08:24:34;5.70;99.90
16929;DHT22;8581;47.334;11.190;2023-02-24T08:27:05;5.90;99.90
16929;DHT22;8581;47.334;11.190;2023-02-24T08:29:37;6.00;99.90
16929;DHT22;8581;47.334;11.190;2023-02-24T08:32:11;6.20;99.90
16929;DHT22;8581;47.334;11.190;2023-02-24T08:34:42;6.40;99.90
16929;DHT22;8581;47.334;11.190;2023-02-24T08:37:14;6.60;99.90
16929;DHT22;8581;47.334;11.190;2023-02-24T08:39:45;6.70;99.90
16929;DHT22;8581;47.334;11.190;2023-02-24T08:42:17;6.70;99.90
16929;DHT22;8581;47.334;11.190;2023-02-24T08:44:49;6.90;99.90
16929;DHT22;8581;47.334;11.190;2023-02-24T08:47:27;7.10;99.90
16929;DHT22;8581;47.334;11.190;2023-02-24T08:50:01;7.40;99.90
16929;DHT22;8581;47.334;11.190;2023-02-24T08:52:33;7.70;99.90
16929;DHT22;8581;47.334;11.190;2023-02-24T08:55:05;7.90;99.90
16929;DHT22;8581;47.334;11.190;2023-02-24T08:57:37;8.10;99.90
16929;DHT22;8581;47.334;11.190;2023-02-24T09:00:09;8.30;99.90
16929;DHT22;8581;47.334;11.190;2023-02-24T09:02:41;8.50;99.90
16929;DHT22;8581;47.334;11.190;2023-02-24T09:05:13;8.30;99.90
16929;DHT22;8581;47.334;11.190;2023-02-24T09:07:45;8.30;99.90
16929;DHT22;8581;47.334;11.190;2023-02-24T09:10:17;8.50;99.90
16929;DHT22;8581;47.334;11.190;2023-02-24T09:12:48;8.50;99.90
16929;DHT22;8581;47.334;11.190;2023-02-24T09:15:19;8.80;99.90
16929;DHT22;8581;47.334;11.190;2023-02-24T09:17:51;9.10;99.90
16929;DHT22;8581;47.334;11.190;2023-02-24T09:20:23;9.10;99.90
16929;DHT22;8581;47.334;11.190;2023-02-24T09:23:04;9.00;99.90
16929;DHT22;8581;47.334;11.190;2023-02-24T09:25:38;9.20;99.90
16929;DHT22;8581;47.334;11.190;2023-02-24T09:28:13;9.40;99.90
16929;DHT22;8581;47.334;11.190;2023-02-24T09:30:47;9.50;99.90
16929;DHT22;8581;47.334;11.190;2023-02-24T09:33:26;10.00;99.90
16929;DHT22;8581;47.334;11.190;2023-02-24T09:36:00;10.20;99.90
16929;DHT22;8581;47.334;11.190;2023-02-24T09:38:44;10.20;99.90
16929;DHT22;8581;47.334;11.190;2023-02-24T09:41:22;10.40;99.90
16929;DHT22;8581;47.334;11.190;2023-02-24T09:43:52;10.60;99.90
16929;DHT22;8581;47.334;11.190;2023-02-24T09:46:24;10.80;99.90
16929;DHT22;8581;47.334;11.190;2023-02-24T09:48:58;10.90;99.90
16929;DHT22;8581;47.334;11.190;2023-02-24T09:51:27;10.80;99.90
16929;DHT22;8581;47.334;11.190;2023-02-24T09:53:59;10.80;99.90
16929;DHT22;8581;47.334;11.190;2023-02-24T09:56:33;10.70;99.90
16929;DHT22;8581;47.334;11.190;2023-02-24T09:59:22;11.10;99.90
16929;DHT22;8581;47.334;11.190;2023-02-24T10:02:42;11.50;99.90
16929;DHT22;8581;47.334;11.190;2023-02-24T10:04:59;12.20;99.90
16929;DHT22;8581;47.334;11.190;2023-02-24T10:07:29;12.00;99.90
16929;DHT22;8581;47.334;11.190;2023-02-24T10:10:19;12.20;99.90
16929;DHT22;8581;47.334;11.190;2023-02-24T10:12:52;12.10;99.40
16929;DHT22;8581;47.334;11.190;2023-02-24T10:15:26;11.70;99.70
16929;DHT22;8581;47.334;11.190;2023-02-24T10:18:13;11.30;99.90
16929;DHT22;8581;47.334;11.190;2023-02-24T10:20:36;10.70;99.90
16929;DHT22;8581;47.334;11.190;2023-02-24T10:23:14;11.00;99.90
16929;DHT22;8581;47.334;11.190;2023-02-24T10:25:48;11.80;99.90
16929;DHT22;8581;47.334;11.190;2023-02-24T10:28:28;12.20;99.40
16929;DHT22;8581;47.334;11.190;2023-02-24T10:31:02;12.40;98.60
16929;DHT22;8581;47.334;11.190;2023-02-24T10:33:34;12.80;99.10
16929;DHT22;8581;47.334;11.190;2023-02-24T10:36:06;13.10;97.50
16929;DHT22;8581;47.334;11.190;2023-02-24T10:38:37;13.10;97.00
16929;DHT22;8581;47.334;11.190;2023-02-24T10:41:08;12.70;96.80
16929;DHT22;8581;47.334;11.190;2023-02-24T10:43:40;12.60;97.30
16929;DHT22;8581;47.334;11.190;2023-02-24T10:46:26;13.10;96.30
16929;DHT22;8581;47.334;11.190;2023-02-24T10:48:58;13.30;96.20
16929;DHT22;8581;47.334;11.190;2023-02-24T10:51:36;13.80;95.60
16929;DHT22;8581;47.334;11.190;2023-02-24T10:54:10;13.50;94.40
16929;DHT22;8581;47.334;11.190;2023-02-24T10:56:41;13.40;94.80
16929;DHT22;8581;47.334;11.190;2023-02-24T10:59:15;13.90;94.20
16929;DHT22;8581;47.334;11.190;2023-02-24T11:01:54;14.50;94.10
16929;DHT22;8581;47.334;11.190;2023-02-24T11:04:32;14.60;93.50
16929;DHT22;8581;47.334;11.190;2023-02-24T11:07:06;15.00;92.70
16929;DHT22;8581;47.334;11.190;2023-02-24T11:09:39;15.50;91.80
16929;DHT22;8581;47.334;11.190;2023-02-24T11:12:17;15.10;91.60
16929;DHT22;8581;47.334;11.190;2023-02-24T11:14:54;14.60;92.50
16929;DHT22;8581;47.334;11.190;2023-02-24T11:17:30;13.60;92.70
16929;DHT22;8581;47.334;11.190;2023-02-24T11:20:04;13.30;93.20
16929;DHT22;8581;47.334;11.190;2023-02-24T11:22:35;12.90;93.70
16929;DHT22;8581;47.334;11.190;2023-02-24T11:27:45;12.50;94.60
16929;DHT22;8581;47.334;11.190;2023-02-24T11:30:23;11.90;94.60
16929;DHT22;8581;47.334;11.190;2023-02-24T11:33:07;11.50;95.60
16929;DHT22;8581;47.334;11.190;2023-02-24T11:35:37;11.50;96.00
16929;DHT22;8581;47.334;11.190;2023-02-24T11:38:23;11.60;95.90
16929;DHT22;8581;47.334;11.190;2023-02-24T11:40:50;12.10;96.80
16929;DHT22;8581;47.334;11.190;2023-02-24T11:43:22;12.00;95.60
16929;DHT22;8581;47.334;11.190;2023-02-24T11:45:57;12.50;95.20
16929;DHT22;8581;47.334;11.190;2023-02-24T11:48:28;12.60;95.20
16929;DHT22;8581;47.334;11.190;2023-02-24T11:51:17;12.80;93.70
16929;DHT22;8581;47.334;11.190;2023-02-24T11:53:51;13.60;93.40
16929;DHT22;8581;47.334;11.190;2023-02-24T11:56:25;13.90;93.20
16929;DHT22;8581;47.334;11.190;2023-02-24T11:59:05;14.60;92.40
16929;DHT22;8581;47.334;11.190;2023-02-24T12:01:42;15.10;91.50
16929;DHT22;8581;47.334;11.190;2023-02-24T12:04:21;15.10;91.40
16929;DHT22;8581;47.334;11.190;2023-02-24T12:06:56;16.20;90.40
16929;DHT22;8581;47.334;11.190;2023-02-24T12:09:33;16.60;88.90
16929;DHT22;8581;47.334;11.190;2023-02-24T12:12:07;16.90;88.20
16929;DHT22;8581;47.334;11.190;2023-02-24T12:14:38;16.70;87.00
16929;DHT22;8581;47.334;11.190;2023-02-24T12:17:16;16.50;86.50
16929;DHT22;8581;47.334;11.190;2023-02-24T12:20:02;16.00;87.70
16929;DHT22;8581;47.334;11.190;2023-02-24T12:22:38;15.50;87.90
16929;DHT22;8581;47.334;11.190;2023-02-24T12:25:10;15.60;87.90
16929;DHT22;8581;47.334;11.190;2023-02-24T12:28:08;16.80;85.30
16929;DHT22;8581;47.334;11.190;2023-02-24T12:30:56;16.20;84.20
16929;DHT22;8581;47.334;11.190;2023-02-24T12:33:30;14.50;89.20
16929;DHT22;8581;47.334;11.190;2023-02-24T12:39:08;14.50;90.10
16929;DHT22;8581;47.334;11.190;2023-02-24T12:41:57;13.90;89.70
16929;DHT22;8581;47.334;11.190;2023-02-24T12:45:09;13.30;90.70
16929;DHT22;8581;47.334;11.190;2023-02-24T12:50:28;13.30;92.40
16929;DHT22;8581;47.334;11.190;2023-02-24T12:53:08;14.10;91.80
16929;DHT22;8581;47.334;11.190;2023-02-24T12:55:47;14.40;90.00
16929;DHT22;8581;47.334;11.190;2023-02-24T12:58:20;13.80;89.70
16929;DHT22;8581;47.334;11.190;2023-02-24T13:01:10;13.80;90.40
16929;DHT22;8581;47.334;11.190;2023-02-24T13:03:52;14.10;90.50
16929;DHT22;8581;47.334;11.190;2023-02-24T13:06:28;14.50;90.50
16929;DHT22;8581;47.334;11.190;2023-02-24T13:09:22;14.50;88.80
16929;DHT22;8581;47.334;11.190;2023-02-24T13:11:54;14.40;90.40
16929;DHT22;8581;47.334;11.190;2023-02-24T13:14:28;14.20;89.70
16929;DHT22;8581;47.334;11.190;2023-02-24T13:17:13;14.50;89.50
16929;DHT22;8581;47.334;11.190;2023-02-24T13:19:37;15.10;87.30
16929;DHT22;8581;47.334;11.190;2023-02-24T13:22:28;15.10;88.30
16929;DHT22;8581;47.334;11.190;2023-02-24T13:25:09;14.70;88.20
16929;DHT22;8581;47.334;11.190;2023-02-24T13:27:35;14.40;88.00
16929;DHT22;8581;47.334;11.190;2023-02-24T13:30:23;14.30;88.70
16929;DHT22;8581;47.334;11.190;2023-02-24T13:32:59;14.50;88.30
16929;DHT22;8581;47.334;11.190;2023-02-24T13:35:31;14.40;88.40
16929;DHT22;8581;47.334;11.190;2023-02-24T13:38:08;14.70;87.30
16929;DHT22;8581;47.334;11.190;2023-02-24T13:40:39;15.10;87.80
16929;DHT22;8581;47.334;11.190;2023-02-24T13:45:53;15.00;88.10
16929;DHT22;8581;47.334;11.190;2023-02-24T13:48:31;14.90;86.70
16929;DHT22;8581;47.334;11.190;2023-02-24T13:54:08;13.50;90.70
16929;DHT22;8581;47.334;11.190;2023-02-24T13:56:43;12.70;91.10
16929;DHT22;8581;47.334;11.190;2023-02-24T13:59:23;12.40;92.00
16929;DHT22;8581;47.334;11.190;2023-02-24T14:01:59;12.30;92.80
16929;DHT22;8581;47.334;11.190;2023-02-24T14:04:32;12.00;92.80
16929;DHT22;8581;47.334;11.190;2023-02-24T14:07:08;12.00;92.40
16929;DHT22;8581;47.334;11.190;2023-02-24T14:09:39;12.20;92.30
16929;DHT22;8581;47.334;11.190;2023-02-24T14:12:13;12.30;93.00
16929;DHT22;8581;47.334;11.190;2023-02-24T14:14:44;12.70;92.30
16929;DHT22;8581;47.334;11.190;2023-02-24T14:17:20;12.80;92.20
16929;DHT22;8581;47.334;11.190;2023-02-24T14:19:51;12.50;92.80
16929;DHT22;8581;47.334;11.190;2023-02-24T14:22:23;12.50;91.80
16929;DHT22;8581;47.334;11.190;2023-02-24T14:25:02;12.40;91.80
16929;DHT22;8581;47.334;11.190;2023-02-24T14:27:36;12.20;92.50
16929;DHT22;8581;47.334;11.190;2023-02-24T14:32:48;12.00;93.80
16929;DHT22;8581;47.334;11.190;2023-02-24T14:35:27;11.80;94.10
16929;DHT22;8581;47.334;11.190;2023-02-24T14:37:57;11.80;94.10
16929;DHT22;8581;47.334;11.190;2023-02-24T14:40:30;11.70;94.50
16929;DHT22;8581;47.334;11.190;2023-02-24T14:43:01;11.30;94.30
16929;DHT22;8581;47.334;11.190;2023-02-24T14:45:33;11.30;95.10
16929;DHT22;8581;47.334;11.190;2023-02-24T14:48:05;11.20;95.00
16929;DHT22;8581;47.334;11.190;2023-02-24T14:50:36;11.30;95.10
16929;DHT22;8581;47.334;11.190;2023-02-24T14:53:11;11.30;94.30
16929;DHT22;8581;47.334;11.190;2023-02-24T14:55:40;11.60;94.60
16929;DHT22;8581;47.334;11.190;2023-02-24T14:58:23;11.40;94.90
16929;DHT22;8581;47.334;11.190;2023-02-24T15:00:55;11.60;95.10
16929;DHT22;8581;47.334;11.190;2023-02-24T15:03:26;11.40;95.10
16929;DHT22;8581;47.334;11.190;2023-02-24T15:05:58;11.70;95.80
16929;DHT22;8581;47.334;11.190;2023-02-24T15:08:33;11.50;95.20
16929;DHT22;8581;47.334;11.190;2023-02-24T15:11:07;11.20;95.60
16929;DHT22;8581;47.334;11.190;2023-02-24T15:13:39;11.30;95.90
16929;DHT22;8581;47.334;11.190;2023-02-24T15:16:28;11.30;95.70
16929;DHT22;8581;47.334;11.190;2023-02-24T15:18:59;11.20;96.20
16929;DHT22;8581;47.334;11.190;2023-02-24T15:21:31;10.80;96.20
16929;DHT22;8581;47.334;11.190;2023-02-24T15:24:03;10.80;96.30
16929;DHT22;8581;47.334;11.190;2023-02-24T15:26:34;10.60;96.30
16929;DHT22;8581;47.334;11.190;2023-02-24T15:29:13;10.60;96.60
16929;DHT22;8581;47.334;11.190;2023-02-24T15:31:46;10.50;96.90
16929;DHT22;8581;47.334;11.190;2023-02-24T15:34:19;10.40;97.10
16929;DHT22;8581;47.334;11.190;2023-02-24T15:36:53;10.20;97.20
16929;DHT22;8581;47.334;11.190;2023-02-24T15:39:23;10.30;96.80
16929;DHT22;8581;47.334;11.190;2023-02-24T15:42:04;10.30;96.70
16929;DHT22;8581;47.334;11.190;2023-02-24T15:44:26;10.40;96.70
16929;DHT22;8581;47.334;11.190;2023-02-24T15:46:58;10.60;96.50
16929;DHT22;8581;47.334;11.190;2023-02-24T15:49:32;10.60;96.90
16929;DHT22;8581;47.334;11.190;2023-02-24T15:52:03;10.60;94.60
16929;DHT22;8581;47.334;11.190;2023-02-24T15:54:35;10.40;96.60
16929;DHT22;8581;47.334;11.190;2023-02-24T15:57:08;10.10;97.30
16929;DHT22;8581;47.334;11.190;2023-02-24T15:59:38;10.10;97.30
16929;DHT22;8581;47.334;11.190;2023-02-24T16:02:14;10.00;97.30
16929;DHT22;8581;47.334;11.190;2023-02-24T16:04:45;10.10;98.10
16929;DHT22;8581;47.334;11.190;2023-02-24T16:07:19;10.20;97.90
16929;DHT22;8581;47.334;11.190;2023-02-24T16:09:49;10.10;98.90
16929;DHT22;8581;47.334;11.190;2023-02-24T16:12:24;9.80;99.30
16929;DHT22;8581;47.334;11.190;2023-02-24T16:14:54;9.60;99.90
16929;DHT22;8581;47.334;11.190;2023-02-24T16:17:35;9.60;99.80
16929;DHT22;8581;47.334;11.190;2023-02-24T16:20:10;9.60;99.60
16929;DHT22;8581;47.334;11.190;2023-02-24T16:22:42;9.50;99.30
16929;DHT22;8581;47.334;11.190;2023-02-24T16:25:14;9.50;99.10
16929;DHT22;8581;47.334;11.190;2023-02-24T16:27:45;9.70;99.50
16929;DHT22;8581;47.334;11.190;2023-02-24T16:30:17;9.70;99.90
16929;DHT22;8581;47.334;11.190;2023-02-24T16:32:49;9.40;99.90
16929;DHT22;8581;47.334;11.190;2023-02-24T16:35:21;9.20;99.90
16929;DHT22;8581;47.334;11.190;2023-02-24T16:37:52;9.10;99.90
16929;DHT22;8581;47.334;11.190;2023-02-24T16:40:25;8.90;99.90
16929;DHT22;8581;47.334;11.190;2023-02-24T16:42:55;8.80;99.90
16929;DHT22;8581;47.334;11.190;2023-02-24T16:45:27;8.60;99.90